createdAt,value
2018-03-22T09:27:24.567Z,6.23
2018-03-22T09:32:25.537Z,6.34
2018-03-22T09:37:26.830Z,6.54
2018-03-22T09:42:27.778Z,6.42
2018-03-22T09:47:29.517Z,6.58
2018-03-22T09:52:30.867Z,6.57
2018-03-22T09:57:32.273Z,6.53
2018-03-22T10:02:33.168Z,6.70
2018-03-22T10:07:34.109Z,6.73
2018-03-22T10:12:35.385Z,7.01
2018-03-22T10:17:36.727Z,6.80
2018-03-22T10:22:37.981Z,6.81
2018-03-22T10:27:38.936Z,7.16
2018-03-22T10:32:40.310Z,7.14
2018-03-22T10:37:41.290Z,7.16
2018-03-22T10:42:42.225Z,7.18
2018-03-22T10:47:43.192Z,7.11
2018-03-22T10:52:44.149Z,7.16
2018-03-22T10:57:45.100Z,7.11
2018-03-22T11:02:52.997Z,7.20
2018-03-22T11:07:53.957Z,7.16
2018-03-22T11:12:54.910Z,7.11
2018-03-22T11:17:55.857Z,7.21
2018-03-22T11:22:56.919Z,7.33
2018-03-22T11:27:57.844Z,7.40
2018-03-22T11:32:58.831Z,7.60
2018-03-22T11:37:59.770Z,7.84
2018-03-22T11:43:00.721Z,7.81
2018-03-22T11:48:01.677Z,7.74
2018-03-22T11:53:03.632Z,7.75
2018-03-22T11:58:04.869Z,7.83
2018-03-22T12:03:06.122Z,7.70
2018-03-22T12:08:07.059Z,7.55
2018-03-22T12:13:07.997Z,7.53
2018-03-22T12:18:08.921Z,7.79
2018-03-22T12:23:09.845Z,7.67
2018-03-22T12:28:11.706Z,7.67
2018-03-22T12:33:12.680Z,7.68
2018-03-22T12:38:13.636Z,7.80
2018-03-22T12:43:14.802Z,7.89
2018-03-22T12:48:16.724Z,7.64
2018-03-22T12:53:17.677Z,7.63
2018-03-22T12:58:18.624Z,7.70
2018-03-22T13:03:19.567Z,7.62
2018-03-22T13:08:20.792Z,7.77
2018-03-22T13:13:22.163Z,8.00
2018-03-22T13:18:25.155Z,8.16
2018-03-22T13:23:26.122Z,8.24
2018-03-22T13:28:27.398Z,8.47
2018-03-22T13:33:29.274Z,8.46
2018-03-22T13:38:30.221Z,8.23
2018-03-22T13:43:31.149Z,8.31
2018-03-22T13:48:32.101Z,8.62
2018-03-22T13:53:33.073Z,8.58
2018-03-22T13:58:34.816Z,8.24
2018-03-22T14:03:35.782Z,8.05
2018-03-22T14:08:36.766Z,7.90
2018-03-22T14:13:37.706Z,7.85
2018-03-22T14:18:38.686Z,8.05
2018-03-22T14:23:39.624Z,8.01
2018-03-22T14:28:40.576Z,8.20
2018-03-22T14:33:41.582Z,8.18
2018-03-22T14:38:42.574Z,8.29
2018-03-22T14:43:43.526Z,8.27
2018-03-22T14:48:44.963Z,7.97
2018-03-22T14:53:46.228Z,8.15
2018-03-22T14:58:47.197Z,7.97
2018-03-22T15:03:48.535Z,8.07
2018-03-22T15:08:49.798Z,7.99
2018-03-22T15:13:51.022Z,7.97
2018-03-22T15:18:52.332Z,7.97
2018-03-22T15:23:53.276Z,7.92
2018-03-22T15:28:54.230Z,7.99
2018-03-22T15:33:55.217Z,8.01
2018-03-22T15:38:56.231Z,7.90
2018-03-22T15:43:57.180Z,8.03
2018-03-22T15:48:58.150Z,8.04
2018-03-22T15:53:59.105Z,7.93
2018-03-22T15:59:00.380Z,7.61
2018-03-22T16:04:01.639Z,8.03
2018-03-22T16:09:02.654Z,8.08
2018-03-22T16:14:03.911Z,8.06
2018-03-22T16:19:04.822Z,8.01
2018-03-22T16:24:05.791Z,8.04
2018-03-22T16:29:06.768Z,8.11
2018-03-22T16:34:07.809Z,8.15
2018-03-22T16:39:08.800Z,8.04
2018-03-22T16:44:09.759Z,7.92
2018-03-22T16:49:10.783Z,7.98
2018-03-22T16:54:11.728Z,8.02
2018-03-22T16:59:12.701Z,7.91
2018-03-22T17:04:13.694Z,7.99
2018-03-22T17:09:14.722Z,8.02
2018-03-22T17:14:15.703Z,7.97
2018-03-22T17:19:16.659Z,7.72
2018-03-22T17:24:17.592Z,7.56
2018-03-22T17:29:18.574Z,7.87
2018-03-22T17:34:19.586Z,7.85
2018-03-22T17:39:20.588Z,7.81
2018-03-22T17:44:21.553Z,7.87
2018-03-22T17:49:22.550Z,7.77
2018-03-22T17:54:23.612Z,7.67
2018-03-22T17:59:24.621Z,7.59
2018-03-22T18:04:25.598Z,7.90
2018-03-22T18:09:26.581Z,8.00
2018-03-22T18:14:27.533Z,7.98
2018-03-22T18:19:28.573Z,8.02
2018-03-22T18:24:29.859Z,7.81
2018-03-22T18:29:30.817Z,7.84
2018-03-22T18:34:31.830Z,7.86
2018-03-22T18:39:32.809Z,7.59
2018-03-22T18:44:33.785Z,7.14
2018-03-22T18:49:34.756Z,7.50
2018-03-22T18:54:35.746Z,7.52
2018-03-22T18:59:36.755Z,7.71
2018-03-22T19:04:38.104Z,7.73
2018-03-22T19:09:39.108Z,7.55
2018-03-22T19:14:40.094Z,7.59
2018-03-22T19:19:41.084Z,7.47
2018-03-22T19:24:42.067Z,7.22
2018-03-22T19:29:43.068Z,7.28
2018-03-22T19:34:44.091Z,7.01
2018-03-22T19:39:45.297Z,6.91
2018-03-22T19:44:46.280Z,6.79
2018-03-22T19:49:47.277Z,6.90
2018-03-22T19:54:48.234Z,6.83
2018-03-22T19:59:49.184Z,6.76
2018-03-22T20:04:50.169Z,6.35
2018-03-22T20:09:51.158Z,6.34
2018-03-22T20:14:52.135Z,6.52
2018-03-22T20:19:53.092Z,6.65
2018-03-22T20:24:54.061Z,6.25
2018-03-22T20:29:55.054Z,6.63
2018-03-22T20:34:56.090Z,6.30
2018-03-22T20:39:57.043Z,6.37
2018-03-22T20:44:58.006Z,6.62
2018-03-22T20:49:58.982Z,6.70
2018-03-22T20:54:59.966Z,6.65
2018-03-22T21:00:00.906Z,6.20
2018-03-22T21:05:01.891Z,6.69
2018-03-22T21:10:02.918Z,6.40
2018-03-22T21:15:03.872Z,6.66
2018-03-22T21:20:04.870Z,6.10
2018-03-22T21:25:05.845Z,6.16
2018-03-22T21:30:06.822Z,6.27
2018-03-22T21:35:07.821Z,5.87
2018-03-22T21:40:08.801Z,6.06
2018-03-22T21:45:09.734Z,6.08
2018-03-22T21:50:10.719Z,6.22
2018-03-22T21:55:11.682Z,6.21
2018-03-22T22:00:12.656Z,6.22
2018-03-22T22:05:13.624Z,6.34
2018-03-22T22:10:14.614Z,6.22
2018-03-22T22:15:15.557Z,6.36
2018-03-22T22:20:16.492Z,6.50
2018-03-22T22:25:17.452Z,6.39
2018-03-22T22:30:18.434Z,6.26
2018-03-22T22:35:19.432Z,6.48
2018-03-22T22:40:20.382Z,6.32
2018-03-22T22:45:21.325Z,6.01
2018-03-22T22:50:22.264Z,6.22
2018-03-22T22:55:23.213Z,6.03
2018-03-22T23:00:24.162Z,6.11
2018-03-22T23:05:25.107Z,5.56
2018-03-22T23:10:26.057Z,5.95
2018-03-22T23:15:26.983Z,5.28
2018-03-22T23:20:27.923Z,5.80
2018-03-22T23:25:28.851Z,5.73
2018-03-22T23:30:29.770Z,5.70
2018-03-22T23:35:30.768Z,5.58
2018-03-22T23:40:31.695Z,5.98
2018-03-22T23:45:32.647Z,5.36
2018-03-22T23:50:33.592Z,5.90
2018-03-22T23:55:34.517Z,5.46
